Emerald Leader — C6WP4 — position and weather

sailwx.info

Track history (hours):
 
Tides and Currents Weather Stations Pressure Air Temp Water Temp Dewpoint Dewpoint Depression Visibility Wind Speed Wind Dir Waves Ship Positions

Emerald Leader

Last reported at 2016-Feb-07 21:29 UTC. Time now 2016-Feb-09 10:04 UTC.
Position N 36°43' E 013°35'.

Length 176 m; draft 8.2 m.

Type: Cargo ship. MMSI: 308688000.

Date/timePositionNaut miles runAvg speedWind from/ knotsBaromVisibWave heightAir tempDewpointWater temp
2016-Feb-07 21:29N 36°43' E 013°35'1314.1
2016-Feb-07 20:33N 36°38' E 013°50'1414.4
2016-Feb-07 19:33N 36°33' E 014°07'1716.5
2016-Feb-07 18:33N 36°29' E 014°26'1715.1
2016-Feb-07 17:26N 36°25' E 014°47'  
2016-Feb-02 20:24N 40°45' E 029°33'910.1
2016-Feb-02 19:33N 40°43' E 029°22'1312.2
2016-Feb-02 18:30N 40°43' E 029°05'28713.6
2016-Feb-01 21:29N 37°43' E 024°17'1813.5
2016-Feb-01 20:11N 37°35' E 023°57'1015.3
2016-Feb-01 19:34N 37°37' E 023°46'1615.6
2016-Feb-01 18:33N 37°51' E 023°37'6 5.8
2016-Feb-01 17:28N 37°58' E 023°36'0 0.0
2016-Feb-01 16:25N 37°58' E 023°36'0 0.0
2016-Feb-01 15:25N 37°58' E 023°36'0 0.0
2016-Feb-01 14:25N 37°58' E 023°36'0 0.0
2016-Feb-01 13:31N 37°58' E 023°36'5 5.1
2016-Feb-01 12:33N 37°53' E 023°38'1313.4
2016-Feb-01 11:34N 37°41' E 023°45'37713.4
2016-Jan-31 07:24N 37°48' E 015°48'1614.3
2016-Jan-31 06:18N 37°58' E 015°33'1216.4
2016-Jan-31 05:33N 38°10' E 015°35'1312.7
2016-Jan-31 04:33N 38°23' E 015°35'1615.8
2016-Jan-31 03:31N 38°35' E 015°20'9515.9
2016-Jan-30 21:34N 39°39' E 013°49'26814.8
2016-Jan-30 03:29N 43°06' E 010°02'1415.6
2016-Jan-30 02:34N 43°20' E 010°07'1414.1
2016-Jan-30 01:33N 43°32' E 010°16'3 3.1
2016-Jan-30 00:33N 43°35' E 010°18'0 0.0
2016-Jan-29 23:33N 43°35' E 010°18'0 0.0
2016-Jan-29 22:33N 43°35' E 010°18'0 0.0
2016-Jan-29 21:33N 43°35' E 010°18'0 0.0
2016-Jan-29 20:33N 43°35' E 010°18'0 0.0
2016-Jan-29 19:33N 43°35' E 010°18'0 0.0
2016-Jan-29 18:33N 43°35' E 010°18'0 0.0
2016-Jan-29 17:33N 43°35' E 010°18'0 0.0
2016-Jan-29 16:33N 43°35' E 010°18'0 0.0
2016-Jan-29 15:33N 43°35' E 010°18'0 0.0
2016-Jan-29 14:33N 43°35' E 010°18'0 0.0
2016-Jan-29 13:33N 43°35' E 010°18'0 0.0
2016-Jan-29 12:33N 43°35' E 010°18'0 0.0
2016-Jan-29 11:30N 43°35' E 010°18'0 0.0
2016-Jan-29 10:33N 43°35' E 010°18'0 0.0
2016-Jan-29 09:33N 43°35' E 010°18'0 0.0
2016-Jan-29 08:33N 43°35' E 010°18'0 0.0
2016-Jan-29 07:33N 43°35' E 010°18'0 0.0
2016-Jan-29 06:33N 43°35' E 010°18'0 0.0
2016-Jan-29 05:33N 43°35' E 010°18'0 0.0
2016-Jan-29 04:33N 43°35' E 010°18'0 0.0
2016-Jan-29 03:33N 43°35' E 010°18'0 0.0
2016-Jan-29 02:30N 43°35' E 010°18'0 0.0
2016-Jan-29 01:33N 43°35' E 010°18'4 3.8
2016-Jan-29 00:33N 43°31' E 010°16'5 4.9
2016-Jan-28 23:33N 43°27' E 010°12'4 4.4
2016-Jan-28 22:33N 43°24' E 010°08'9 9.1
2016-Jan-28 21:34N 43°18' E 009°59'  
Track history (hours):
 
Tides and Currents Weather Stations Pressure Air Temp Water Temp Dewpoint Dewpoint Depression Visibility Wind Speed Wind Dir Waves Ship Positions

Emerald Leader

Last reported at 2016-Feb-07 21:29 UTC. Time now 2016-Feb-09 10:04 UTC.
Position N 36°43' E 013°35'.

Length 176 m; draft 8.2 m.

Type: Cargo ship. MMSI: 308688000.

Date/timePositionNaut miles runAvg speedWind from/ knotsBaromVisibWave heightAir tempDewpointWater temp
2016-Feb-07 21:29N 36°43' E 013°35'1314.1
2016-Feb-07 20:33N 36°38' E 013°50'1414.4
2016-Feb-07 19:33N 36°33' E 014°07'1716.5
2016-Feb-07 18:33N 36°29' E 014°26'1715.1
2016-Feb-07 17:26N 36°25' E 014°47'  
2016-Feb-02 20:24N 40°45' E 029°33'910.1
2016-Feb-02 19:33N 40°43' E 029°22'1312.2
2016-Feb-02 18:30N 40°43' E 029°05'28713.6
2016-Feb-01 21:29N 37°43' E 024°17'1813.5
2016-Feb-01 20:11N 37°35' E 023°57'1015.3
2016-Feb-01 19:34N 37°37' E 023°46'1615.6
2016-Feb-01 18:33N 37°51' E 023°37'6 5.8
2016-Feb-01 17:28N 37°58' E 023°36'0 0.0
2016-Feb-01 16:25N 37°58' E 023°36'0 0.0
2016-Feb-01 15:25N 37°58' E 023°36'0 0.0
2016-Feb-01 14:25N 37°58' E 023°36'0 0.0
2016-Feb-01 13:31N 37°58' E 023°36'5 5.1
2016-Feb-01 12:33N 37°53' E 023°38'1313.4
2016-Feb-01 11:34N 37°41' E 023°45'37713.4
2016-Jan-31 07:24N 37°48' E 015°48'1614.3
2016-Jan-31 06:18N 37°58' E 015°33'1216.4
2016-Jan-31 05:33N 38°10' E 015°35'1312.7
2016-Jan-31 04:33N 38°23' E 015°35'1615.8
2016-Jan-31 03:31N 38°35' E 015°20'9515.9
2016-Jan-30 21:34N 39°39' E 013°49'26814.8
2016-Jan-30 03:29N 43°06' E 010°02'1415.6
2016-Jan-30 02:34N 43°20' E 010°07'1414.1
2016-Jan-30 01:33N 43°32' E 010°16'3 3.1
2016-Jan-30 00:33N 43°35' E 010°18'0 0.0
2016-Jan-29 23:33N 43°35' E 010°18'0 0.0
2016-Jan-29 22:33N 43°35' E 010°18'0 0.0
2016-Jan-29 21:33N 43°35' E 010°18'0 0.0
2016-Jan-29 20:33N 43°35' E 010°18'0 0.0
2016-Jan-29 19:33N 43°35' E 010°18'0 0.0
2016-Jan-29 18:33N 43°35' E 010°18'0 0.0
2016-Jan-29 17:33N 43°35' E 010°18'0 0.0
2016-Jan-29 16:33N 43°35' E 010°18'0 0.0
2016-Jan-29 15:33N 43°35' E 010°18'0 0.0
2016-Jan-29 14:33N 43°35' E 010°18'0 0.0
2016-Jan-29 13:33N 43°35' E 010°18'0 0.0
2016-Jan-29 12:33N 43°35' E 010°18'0 0.0
2016-Jan-29 11:30N 43°35' E 010°18'0 0.0
2016-Jan-29 10:33N 43°35' E 010°18'0 0.0
2016-Jan-29 09:33N 43°35' E 010°18'0 0.0
2016-Jan-29 08:33N 43°35' E 010°18'0 0.0
2016-Jan-29 07:33N 43°35' E 010°18'0 0.0
2016-Jan-29 06:33N 43°35' E 010°18'0 0.0
2016-Jan-29 05:33N 43°35' E 010°18'0 0.0
2016-Jan-29 04:33N 43°35' E 010°18'0 0.0
2016-Jan-29 03:33N 43°35' E 010°18'0 0.0
2016-Jan-29 02:30N 43°35' E 010°18'0 0.0
2016-Jan-29 01:33N 43°35' E 010°18'4 3.8
2016-Jan-29 00:33N 43°31' E 010°16'5 4.9
2016-Jan-28 23:33N 43°27' E 010°12'4 4.4
2016-Jan-28 22:33N 43°24' E 010°08'9 9.1
2016-Jan-28 21:34N 43°18' E 009°59'  

Dump ship's entire track history